Terminal Aerodrome Forecast
Issued by NWS Paducah, KY

Home | Current Version | Previous Version | Text Only | Print | Product List | Glossary On
Versions: 1 2 3 4 5 6 7 8 9 10 11 12 13 14 15 16 17 18
725
FTUS43 KPAH 180520
TAFEVV
TAF
KEVV 180520Z 1806/1906 VRB03KT P6SM SCT035 BKN060
     FM180800 VRB03KT P6SM SCT045
      TEMPO 1808/1812 5SM BR
     FM181600 28007KT P6SM SCT045
     FM190000 VRB02KT P6SM SCT050 BKN250=

USA.gov is the U.S. government's official web portal to all federal, state and local government web resources and services.